Time;durP1;ratioP1;P1;durP2;ratioP2;P2;SDS_P1;SDS_P2;PMS_P1;PMS_P2;Temp;Humidity;BMP_temperature;BMP_pressure;BME280_temperature;BME280_humidity;BME280_pressure;Samples;Min_cycle;Max_cycle;Signal;HPM_P1;HPM_P2
2022/04/28 00:01:40;;;;;;;24.50;14.70;;;;;;;8.30;53.76;100939.36;106228;1270;138290;-85
2022/04/28 00:04:12;;;;;;;29.90;14.70;;;;;;;8.30;53.96;100941.25;106489;1270;96471;-86
2022/04/28 00:06:45;;;;;;;28.10;15.30;;;;;;;8.29;54.03;100941.63;106477;1270;96475;-86
2022/04/28 00:09:17;;;;;;;23.10;14.50;;;;;;;8.27;54.11;100941.11;106343;1271;137675;-86
2022/04/28 00:11:51;;;;;;;28.80;15.20;;;;;;;8.25;54.08;100945.10;106495;1270;106766;-87
2022/04/28 00:14:23;;;;;;;24.40;14.80;;;;;;;8.24;54.19;100949.10;106330;1269;140107;-87
2022/04/28 00:16:55;;;;;;;23.90;13.70;;;;;;;8.22;54.37;100951.20;106432;1270;96478;-88
2022/04/28 00:19:28;;;;;;;21.20;13.80;;;;;;;8.17;54.27;100948.15;107123;1268;138350;-87
2022/04/28 00:22:00;;;;;;;18.10;13.20;;;;;;;8.13;54.38;100947.86;107888;1270;109979;-87
2022/04/28 00:24:32;;;;;;;20.90;13.90;;;;;;;8.09;54.52;100946.51;106445;1268;108006;-86
2022/04/28 00:27:05;;;;;;;26.20;12.90;;;;;;;8.06;54.25;100949.83;106857;1270;137548;-86
2022/04/28 00:29:38;;;;;;;21.10;12.40;;;;;;;8.01;54.50;100948.16;106401;1271;96471;-86
2022/04/28 00:32:12;;;;;;;22.90;12.60;;;;;;;7.96;54.64;100949.95;106608;1270;137475;-86
2022/04/28 00:34:44;;;;;;;23.70;13.70;;;;;;;7.94;54.68;100948.41;106636;1271;109933;-85
2022/04/28 00:37:18;;;;;;;28.10;14.30;;;;;;;7.92;54.63;100949.13;106327;1268;137640;-86
2022/04/28 00:39:51;;;;;;;24.60;14.00;;;;;;;7.86;54.68;100949.69;106422;1271;109359;-86
2022/04/28 00:42:24;;;;;;;22.90;13.00;;;;;;;7.81;54.94;100948.02;106449;1271;96503;-85
2022/04/28 00:44:56;;;;;;;25.80;13.00;;;;;;;7.76;55.07;100945.98;106361;1270;137921;-87
2022/04/28 00:50:38;;;;;;;20.70;12.60;;;;;;;7.72;55.13;100947.92;106388;1270;111027;-87
2022/04/28 00:50:39;;;;;;;22.70;13.30;;;;;;;7.68;55.04;100948.30;106286;1271;137475;-86
2022/04/28 00:53:14;;;;;;;19.80;11.20;;;;;;;7.63;55.21;100943.86;106403;1271;107881;-86
2022/04/28 00:55:47;;;;;;;21.50;11.30;;;;;;;7.60;55.38;100949.25;106179;1271;139342;-87
2022/04/28 00:58:19;;;;;;;16.80;10.20;;;;;;;7.58;55.21;100945.13;106305;1271;96475;-86
2022/04/28 01:00:53;;;;;;;17.70;10.70;;;;;;;7.59;55.50;100945.80;106475;1271;108619;-87
2022/04/28 01:03:30;;;;;;;17.00;10.70;;;;;;;7.59;55.30;100948.22;106280;1270;138163;-87
2022/04/28 01:06:03;;;;;;;18.60;10.50;;;;;;;7.57;55.41;100947.89;106399;1271;108810;-87
2022/04/28 01:08:36;;;;;;;22.00;11.30;;;;;;;7.57;55.57;100942.53;106355;1271;137707;-86
2022/04/28 01:11:08;;;;;;;17.70;11.50;;;;;;;7.56;55.36;100941.34;106439;1271;96509;-85
2022/04/28 01:13:53;;;;;;;19.30;11.20;;;;;;;7.53;55.26;100940.30;106265;1270;137772;-86
2022/04/28 01:16:35;;;;;;;17.60;11.10;;;;;;;7.51;55.60;100937.89;106346;1271;107682;-86
2022/04/28 01:19:08;;;;;;;19.40;11.20;;;;;;;7.47;55.56;100937.41;106383;1271;107854;-85
2022/04/28 01:21:40;;;;;;;17.40;11.10;;;;;;;7.41;55.65;100933.50;106294;1271;137620;-85
2022/04/28 01:24:19;;;;;;;17.00;11.00;;;;;;;7.35;55.66;100934.23;106416;1271;96474;-89
2022/04/28 01:26:52;;;;;;;20.20;11.00;;;;;;;7.29;55.79;100932.89;106858;1271;137448;-86
2022/04/28 01:29:26;;;;;;;21.90;11.80;;;;;;;7.22;55.87;100931.05;106421;1271;107789;-86
2022/04/28 01:31:58;;;;;;;19.30;11.20;;;;;;;7.18;56.00;100932.29;106549;1270;137004;-86
2022/04/28 01:34:31;;;;;;;18.10;11.80;;;;;;;7.13;55.93;100931.45;107685;1270;96484;-86
2022/04/28 01:37:06;;;;;;;21.90;11.20;;;;;;;7.08;56.23;100930.27;106748;1271;94863;-85
2022/04/28 01:39:39;;;;;;;16.20;10.90;;;;;;;7.05;56.35;100930.31;106335;1270;137627;-85
2022/04/28 01:42:11;;;;;;;19.50;11.50;;;;;;;7.03;56.28;100926.87;106404;1271;109219;-85
2022/04/28 01:44:43;;;;;;;21.10;10.40;;;;;;;6.97;56.54;100922.73;107040;1270;137590;-85
2022/04/28 01:47:16;;;;;;;16.90;9.70;;;;;;;6.94;56.53;100921.55;106681;1268;96452;-85
2022/04/28 01:50:15;;;;;;;17.10;10.40;;;;;;;6.92;56.76;100919.14;107289;1268;139519;-86
2022/04/28 01:56:18;;;;;;;16.00;9.80;;;;;;;7.00;56.91;100910.09;106358;1271;138727;-88
2022/04/28 01:59:01;;;;;;;18.80;10.30;;;;;;;7.04;56.61;100911.83;107251;1270;107698;-88
2022/04/28 02:01:48;;;;;;;21.20;10.80;;;;;;;7.06;56.80;100914.21;106959;1268;136694;-86
2022/04/28 02:04:20;;;;;;;16.90;10.00;;;;;;;7.05;56.36;100913.02;106283;1271;96479;-87
2022/04/28 02:06:54;;;;;;;20.20;11.30;;;;;;;7.03;56.32;100913.55;107099;1271;110380;-86
2022/04/28 02:09:26;;;;;;;23.70;11.60;;;;;;;7.00;56.20;100918.05;107679;1271;140019;-87
2022/04/28 02:11:58;;;;;;;18.70;11.30;;;;;;;6.98;56.22;100916.33;107726;1271;107875;-86
2022/04/28 02:14:48;;;;;;;16.80;11.10;;;;;;;6.95;56.42;100916.52;107659;1271;137522;-86
2022/04/28 02:17:41;;;;;;;16.70;10.40;;;;;;;6.93;56.32;100912.23;107879;1270;94789;-86
2022/04/28 02:20:15;;;;;;;16.30;9.80;;;;;;;6.91;56.35;100914.14;107798;1271;138445;-86
2022/04/28 02:22:48;;;;;;;16.50;9.50;;;;;;;6.90;56.44;100918.48;107908;1271;108891;-85
2022/04/28 02:25:21;;;;;;;15.10;9.20;;;;;;;6.88;56.09;100917.62;107774;1271;138187;-85
2022/04/28 02:27:53;;;;;;;15.90;9.40;;;;;;;6.87;56.26;100914.87;107892;1271;94688;-86
2022/04/28 02:30:25;;;;;;;12.20;8.50;;;;;;;6.85;56.27;100912.46;107884;1270;95595;-85
2022/04/28 02:33:10;;;;;;;14.90;8.80;;;;;;;6.83;56.20;100909.71;107748;1270;137364;-85
2022/04/28 02:36:12;;;;;;;13.60;8.80;;;;;;;6.79;56.15;100907.30;107707;1271;108892;-86
2022/04/28 02:38:45;;;;;;;18.80;10.90;;;;;;;6.78;56.25;100907.66;107657;1269;137429;-86
2022/04/28 02:41:20;;;;;;;15.70;9.30;;;;;;;6.76;56.29;100907.15;106858;1271;96471;-87
2022/04/28 02:43:55;;;;;;;16.90;9.30;;;;;;;6.73;56.38;100906.13;106196;1268;137842;-86
2022/04/28 02:46:28;;;;;;;14.30;9.70;;;;;;;6.70;56.19;100907.02;106684;1270;109788;-87
2022/04/28 02:49:08;;;;;;;17.20;8.70;;;;;;;6.68;56.47;100906.17;107375;1271;108943;-86
2022/04/28 02:51:42;;;;;;;15.90;9.60;;;;;;;6.67;56.81;100908.93;106007;1271;139116;-86
2022/04/28 02:54:15;;;;;;;17.70;9.20;;;;;;;6.66;56.90;100905.84;107731;1271;94692;-87
2022/04/28 02:56:53;;;;;;;15.20;9.00;;;;;;;6.68;57.03;100909.45;107739;1271;139076;-87
2022/04/28 02:59:25;;;;;;;16.50;8.90;;;;;;;6.71;56.92;100906.49;106417;1271;111151;-86
2022/04/28 03:01:57;;;;;;;17.20;9.40;;;;;;;6.74;57.05;100905.25;106078;1269;138370;-87
2022/04/28 03:04:30;;;;;;;17.80;10.40;;;;;;;6.78;57.17;100904.53;106189;1270;109043;-85
2022/04/28 03:12:42;;;;;;;17.70;10.50;;;;;;;6.77;57.17;100915.77;106279;1271;109524;-86
2022/04/28 03:15:21;;;;;;;18.30;10.30;;;;;;;6.70;57.58;100922.92;106263;1269;138066;-86
2022/04/28 03:17:53;;;;;;;22.40;10.90;;;;;;;6.63;57.38;100929.34;106328;1271;108836;-86
2022/04/28 03:20:25;;;;;;;20.60;12.00;;;;;;;6.57;57.42;100926.60;106199;1271;137834;-84
2022/04/28 03:22:57;;;;;;;34.10;16.80;;;;;;;6.48;57.59;100929.59;106352;1271;96119;-87
2022/04/28 03:25:31;;;;;;;21.80;12.10;;;;;;;6.42;57.82;100929.60;106500;1271;139047;-84
2022/04/28 03:28:03;;;;;;;21.10;12.00;;;;;;;6.39;57.70;100933.42;106933;1271;109273;-90
2022/04/28 03:30:36;;;;;;;19.80;11.70;;;;;;;6.38;58.01;100934.30;106369;1269;108673;-90
2022/04/28 03:33:23;;;;;;;16.50;10.90;;;;;;;6.35;57.99;100933.96;107698;1271;138171;-90
2022/04/28 03:35:55;;;;;;;17.00;11.10;;;;;;;6.33;57.84;100932.59;107893;1270;94390;-87
2022/04/28 03:38:27;;;;;;;22.00;11.20;;;;;;;6.32;57.86;100932.60;107395;1270;137788;-87
2022/04/28 03:40:59;;;;;;;18.10;11.10;;;;;;;6.34;58.01;100933.79;107868;1270;106570;-87
2022/04/28 03:43:31;;;;;;;16.70;9.90;;;;;;;6.39;58.21;100933.42;107788;1268;138769;-87
2022/04/28 03:46:04;;;;;;;18.40;9.90;;;;;;;6.46;58.35;100930.98;106601;1271;96561;-86
2022/04/28 03:48:37;;;;;;;19.80;9.30;;;;;;;6.55;57.98;100931.98;107298;1268;96347;-86
2022/04/28 03:51:10;;;;;;;15.40;9.10;;;;;;;6.64;58.02;100934.69;107718;1270;138337;-86
2022/04/28 03:53:42;;;;;;;15.70;8.70;;;;;;;6.73;57.63;100934.99;107858;1270;107591;-86
2022/04/28 03:56:15;;;;;;;16.30;9.50;;;;;;;6.81;57.53;100934.95;107766;1270;138095;-87
2022/04/28 03:58:47;;;;;;;16.00;9.20;;;;;;;6.88;57.55;100936.80;107824;1270;94866;-86
2022/04/28 04:01:20;;;;;;;15.20;9.10;;;;;;;6.95;57.45;100936.41;107382;1270;96458;-86
2022/04/28 04:04:05;;;;;;;20.10;9.60;;;;;;;7.03;57.21;100937.58;106266;1270;136934;-86
2022/04/28 04:06:41;;;;;;;18.30;8.60;;;;;;;7.10;57.09;100942.89;106359;1271;109074;-85
2022/04/28 04:09:34;;;;;;;15.20;8.70;;;;;;;7.18;56.88;100944.39;107076;1270;137573;-84
2022/04/28 04:12:09;;;;;;;16.30;9.40;;;;;;;7.27;56.57;100945.02;106257;1271;97114;-85
2022/04/28 04:15:09;;;;;;;15.60;9.20;;;;;;;7.38;56.41;100941.83;106830;1270;138322;-89
2022/04/28 04:18:16;;;;;;;14.30;9.30;;;;;;;7.45;56.02;100944.02;106741;1270;111538;-87
2022/04/28 04:21:03;;;;;;;14.50;9.30;;;;;;;7.51;56.03;100948.45;106188;1270;137608;-89
2022/04/28 04:23:36;;;;;;;16.20;9.30;;;;;;;7.55;55.80;100949.46;106205;1271;108629;-88
2022/04/28 04:26:08;;;;;;;16.40;9.00;;;;;;;7.60;55.64;100951.33;106124;1271;138044;-87
2022/04/28 04:28:40;;;;;;;15.30;8.70;;;;;;;7.63;55.56;100954.24;106257;1271;96484;-88
2022/04/28 04:34:32;;;;;;;13.90;7.90;;;;;;;7.71;55.28;100960.40;106369;1270;107809;-89
2022/04/28 04:37:05;;;;;;;17.20;8.10;;;;;;;7.77;55.21;100957.77;106270;1270;107661;-88
2022/04/28 04:39:37;;;;;;;15.60;8.50;;;;;;;7.82;54.94;100964.10;106294;1268;138990;-89
2022/04/28 04:42:10;;;;;;;15.60;7.90;;;;;;;7.90;54.76;100964.71;106345;1271;96356;-90
2022/04/28 04:44:42;;;;;;;13.30;7.80;;;;;;;7.98;54.68;100963.60;106250;1270;137280;-89
2022/04/28 04:47:18;;;;;;;15.10;8.20;;;;;;;8.06;54.51;100964.73;106288;1271;107835;-89
2022/04/28 04:50:11;;;;;;;13.30;7.80;;;;;;;8.16;54.15;100969.65;106243;1268;138976;-88
2022/04/28 04:53:05;;;;;;;15.20;8.60;;;;;;;8.24;54.08;100971.80;106298;1270;96502;-89
2022/04/28 04:55:38;;;;;;;11.80;7.90;;;;;;;8.33;54.12;100971.73;106317;1271;96600;-89
2022/04/28 04:58:12;;;;;;;13.50;9.70;;;;;;;8.41;53.85;100971.81;106117;1270;137747;-89
2022/04/28 05:00:45;;;;;;;24.20;15.20;;;;;;;8.52;53.69;100967.72;106328;1270;105786;-88
2022/04/28 05:03:29;;;;;;;18.40;13.00;;;;;;;8.62;53.40;100963.25;106292;1270;139566;-89
2022/04/28 05:06:31;;;;;;;16.40;7.90;;;;;;;8.77;53.46;100961.15;106212;1271;96488;-89
2022/04/28 05:09:18;;;;;;;13.60;7.90;;;;;;;8.94;53.27;100961.95;106333;1270;137175;-88
2022/04/28 05:11:51;;;;;;;14.70;8.50;;;;;;;9.07;52.76;100958.30;106467;1268;110944;-89
2022/04/28 05:14:36;;;;;;;12.00;7.90;;;;;;;9.18;52.50;100960.92;106299;1271;138564;-89
2022/04/28 05:17:09;;;;;;;16.30;8.50;;;;;;;9.26;52.23;100960.95;106305;1268;106640;-88
2022/04/28 05:19:52;;;;;;;13.80;8.10;;;;;;;9.39;51.92;100962.67;106427;1268;96555;-87
2022/04/28 05:22:45;;;;;;;16.00;7.90;;;;;;;9.51;51.59;100964.73;106176;1270;137425;-88
2022/04/28 05:25:36;;;;;;;18.40;8.00;;;;;;;9.63;51.38;100964.17;106327;1269;110937;-89
2022/04/28 05:28:34;;;;;;;13.40;7.50;;;;;;;9.85;51.02;100969.71;106115;1270;137656;-88
2022/04/28 05:31:25;;;;;;;17.90;7.70;;;;;;;10.12;50.74;100971.48;106390;1270;108831;-88
2022/04/28 05:34:27;;;;;;;12.00;7.50;;;;;;;10.33;50.36;100975.27;106156;1270;138217;-89
2022/04/28 05:37:03;;;;;;;11.10;7.50;;;;;;;10.52;50.23;100970.02;106282;1270;97137;-89
2022/04/28 05:39:35;;;;;;;14.60;8.40;;;;;;;10.86;50.19;100975.23;106263;1270;137635;-89
2022/04/28 05:42:11;;;;;;;15.90;8.60;;;;;;;11.91;49.64;100977.44;106440;1270;109191;-88
2022/04/28 05:47:33;;;;;;;15.70;7.70;;;;;;;13.50;47.35;100978.20;106358;1271;96780;-87
2022/04/28 05:50:07;;;;;;;11.50;7.50;;;;;;;15.04;46.14;100973.21;106430;1270;96347;-88
2022/04/28 05:52:41;;;;;;;10.70;7.20;;;;;;;16.70;44.40;100969.17;107741;1269;138498;-86
2022/04/28 05:55:13;;;;;;;13.80;7.70;;;;;;;17.74;42.27;100973.89;107129;1270;108882;-86
2022/04/28 05:57:46;;;;;;;11.10;7.60;;;;;;;17.86;40.67;100976.11;106350;1270;138557;-88
2022/04/28 06:00:21;;;;;;;13.80;7.20;;;;;;;17.85;40.20;100975.47;106302;1271;96571;-89
2022/04/28 06:02:55;;;;;;;11.60;7.40;;;;;;;17.80;39.72;100973.04;106400;1269;138992;-88
2022/04/28 06:05:30;;;;;;;;;;;;;;;17.85;39.31;100975.09;106335;1270;108410;-87
2022/04/28 06:08:02;;;;;;;9.60;6.90;;;;;;;17.85;39.03;100980.20;106339;1270;108008;-89
2022/04/28 06:10:34;;;;;;;12.20;7.60;;;;;;;17.77;38.61;100985.52;106289;1268;137735;-87
2022/04/28 06:13:06;;;;;;;14.40;7.10;;;;;;;17.97;38.56;100986.60;106211;1270;97535;-88
2022/04/28 06:15:58;;;;;;;12.20;7.20;;;;;;;18.71;37.45;100982.05;106293;1268;137547;-87
2022/04/28 06:18:50;;;;;;;11.30;7.60;;;;;;;19.18;36.75;100978.35;106344;1270;111148;-86
2022/04/28 06:21:51;;;;;;;11.20;7.30;;;;;;;19.37;35.93;100984.17;106278;1269;137918;-88
2022/04/28 06:24:25;;;;;;;14.00;7.30;;;;;;;19.21;35.56;100987.18;106360;1270;108793;-87
2022/04/28 06:26:58;;;;;;;14.80;7.10;;;;;;;19.07;35.47;100988.73;106311;1270;137953;-88
2022/04/28 06:29:31;;;;;;;11.70;6.70;;;;;;;18.63;35.25;100988.64;106422;1270;96487;-88
2022/04/28 06:32:07;;;;;;;15.30;7.60;;;;;;;18.23;35.56;100993.02;106443;1268;111110;-89
2022/04/28 06:35:00;;;;;;;18.30;8.30;;;;;;;17.84;35.77;100992.23;106055;1269;138094;-88
2022/04/28 06:37:35;;;;;;;25.70;9.60;;;;;;;17.45;36.02;100995.30;106337;1270;107423;-87
2022/04/28 06:40:12;;;;;;;27.90;9.80;;;;;;;17.11;36.33;100995.07;106147;1271;137883;-87
2022/04/28 06:42:49;;;;;;;32.60;10.40;;;;;;;16.79;36.72;101002.15;106655;1270;96548;-88
2022/04/28 06:46:11;;;;;;;30.60;10.20;;;;;;;16.40;36.88;101005.64;106060;1270;137924;-86
2022/04/28 06:48:53;;;;;;;32.70;10.10;;;;;;;15.84;37.50;101007.73;106308;1270;108982;-88
2022/04/28 06:51:46;;;;;;;29.90;8.60;;;;;;;15.49;38.10;101007.38;106191;1270;137889;-85
2022/04/28 06:54:28;;;;;;;29.80;9.20;;;;;;;15.15;38.26;101007.52;107766;1269;94903;-82
2022/04/28 06:57:00;;;;;;;29.60;8.90;;;;;;;14.85;38.78;101006.37;107812;1269;137555;-88
2022/04/28 06:59:34;;;;;;;29.60;9.20;;;;;;;14.52;39.15;101011.63;107866;1271;111397;-88
2022/04/28 07:02:08;;;;;;;25.50;8.60;;;;;;;14.21;39.70;101016.73;107256;1270;108434;-75
2022/04/28 07:04:42;;;;;;;19.90;8.30;;;;;;;13.92;40.23;101018.79;107275;1270;138891;-89
2022/04/28 07:07:17;;;;;;;29.00;9.20;;;;;;;13.69;40.60;101018.67;107466;1269;96495;-90
2022/04/28 07:09:51;;;;;;;28.70;9.80;;;;;;;13.49;41.14;101013.57;106404;1268;138867;-89
2022/04/28 07:12:44;;;;;;;34.90;9.30;;;;;;;13.33;41.37;101011.79;106525;1270;109780;-92
2022/04/28 07:15:36;;;;;;;30.40;9.10;;;;;;;13.10;41.52;101013.88;106339;1270;136791;-92
2022/04/28 07:18:28;;;;;;;34.20;9.30;;;;;;;12.87;42.02;101014.38;106443;1270;107777;-90
2022/04/28 07:21:03;;;;;;;58.00;26.90;;;;;;;12.67;42.16;101015.29;106301;1270;138073;-75
2022/04/28 07:23:41;;;;;;;23.40;9.30;;;;;;;12.50;42.39;101021.17;106358;1269;96664;-83
2022/04/28 07:26:14;;;;;;;26.10;9.10;;;;;;;12.32;42.51;101022.05;106346;1270;111117;-84
2022/04/28 07:28:47;;;;;;;26.70;9.40;;;;;;;12.15;42.80;101023.00;106364;1270;138599;-81
2022/04/28 07:31:43;;;;;;;27.20;8.80;;;;;;;12.02;43.04;101023.36;106363;1268;107825;-83
2022/04/28 07:34:16;;;;;;;38.00;9.50;;;;;;;11.86;43.19;101020.80;106308;1270;138917;-82
2022/04/28 07:37:07;;;;;;;25.60;9.10;;;;;;;11.76;43.59;101020.84;106421;1270;96551;-87
2022/04/28 07:39:57;;;;;;;26.40;8.50;;;;;;;11.77;44.19;101025.51;106306;1270;137617;-91
2022/04/28 07:42:49;;;;;;;28.20;9.10;;;;;;;11.79;44.70;101025.67;106396;1269;107282;-90
2022/04/28 07:45:23;;;;;;;26.60;9.20;;;;;;;11.85;44.92;101025.52;106290;1270;137700;-90
2022/04/28 07:47:56;;;;;;;25.40;8.80;;;;;;;11.90;44.87;101027.14;106541;1270;96439;-89
2022/04/28 07:50:30;;;;;;;26.10;8.40;;;;;;;11.96;44.74;101026.80;106459;1270;96474;-89
2022/04/28 07:53:11;;;;;;;24.70;8.30;;;;;;;12.01;44.55;101029.63;106312;1270;137759;-89
2022/04/28 07:55:43;;;;;;;16.70;8.30;;;;;;;12.09;44.63;101028.39;106439;1268;108329;-89
2022/04/28 07:58:15;;;;;;;20.70;8.00;;;;;;;12.17;44.24;101035.67;106106;1270;138077;-90
2022/04/28 08:01:07;;;;;;;14.70;7.60;;;;;;;12.27;44.28;101035.27;106778;1270;96378;-90
2022/04/28 08:03:40;;;;;;;15.30;7.40;;;;;;;12.41;44.34;101038.00;106295;1269;138425;-91
2022/04/28 08:06:13;;;;;;;9.90;7.30;;;;;;;12.55;44.32;101039.70;106354;1270;107831;-91
2022/04/28 08:08:45;;;;;;;16.00;7.20;;;;;;;12.75;43.99;101040.73;106276;1269;108960;-89
2022/04/28 08:11:17;;;;;;;12.50;6.50;;;;;;;12.96;43.69;101041.16;106269;1267;137485;-91
2022/04/28 08:13:50;;;;;;;11.50;7.00;;;;;;;13.22;43.47;101041.27;106310;1270;96520;-90
2022/04/28 08:16:31;;;;;;;15.60;6.50;;;;;;;13.58;43.51;101039.27;106304;1268;137646;-90
2022/04/28 08:19:03;;;;;;;12.50;6.60;;;;;;;13.92;42.72;101040.27;106322;1268;109794;-90
2022/04/28 08:21:46;;;;;;;15.60;7.30;;;;;;;14.27;42.45;101040.84;106249;1270;137703;-89
2022/04/28 08:24:18;;;;;;;16.00;6.70;;;;;;;14.58;42.15;101043.45;106418;1271;108744;-91
2022/04/28 08:26:51;;;;;;;11.20;6.20;;;;;;;14.94;41.57;101037.38;106291;1268;96509;-89
2022/04/28 08:29:24;;;;;;;16.90;7.60;;;;;;;15.35;41.40;101038.95;106408;1271;138786;-89
2022/04/28 08:32:02;;;;;;;12.10;6.00;;;;;;;15.81;40.83;101035.71;106354;1270;111570;-92
2022/04/28 08:34:34;;;;;;;11.90;6.50;;;;;;;16.27;40.15;101036.05;106162;1268;138645;-90
2022/04/28 08:37:07;;;;;;;18.80;6.40;;;;;;;16.84;39.55;101033.70;106209;1268;107155;-89
2022/04/28 08:39:39;;;;;;;10.10;5.80;;;;;;;17.45;38.85;101034.39;106190;1270;137846;-89
2022/04/28 08:42:15;;;;;;;9.80;5.60;;;;;;;18.10;38.37;101036.59;106329;1270;96681;-90
2022/04/28 08:45:20;;;;;;;11.10;5.70;;;;;;;19.39;37.54;101029.88;106277;1270;137440;-85
2022/04/28 08:48:12;;;;;;;8.40;5.50;;;;;;;21.03;36.19;101025.59;106398;1268;108946;-86
2022/04/28 08:51:13;;;;;;;9.20;5.00;;;;;;;22.79;34.62;101021.55;106240;1268;138074;-87
2022/04/28 08:53:48;;;;;;;8.80;5.70;;;;;;;24.13;33.08;101009.95;107820;1270;94936;-86
2022/04/28 08:56:22;;;;;;;9.70;5.30;;;;;;;25.35;31.59;101013.20;107880;1268;94434;-88
2022/04/28 08:58:55;;;;;;;10.80;4.90;;;;;;;26.14;29.78;101006.48;107742;1269;137329;-85
2022/04/28 09:01:29;;;;;;;11.60;5.30;;;;;;;26.98;29.41;101006.41;106928;1270;108824;-88
2022/04/28 09:04:27;;;;;;;8.30;4.90;;;;;;;28.32;28.18;101002.76;106076;1270;137636;-82
2022/04/28 09:07:33;;;;;;;12.10;4.70;;;;;;;29.44;26.97;100996.25;107333;1268;95172;-82
2022/04/28 09:10:33;;;;;;;10.00;4.70;;;;;;;30.38;25.93;100996.20;106093;1270;137485;-82
2022/04/28 09:16:19;;;;;;;7.30;4.40;;;;;;;31.69;24.06;100988.86;106277;1270;137742;-81
2022/04/28 09:18:54;;;;;;;9.30;4.60;;;;;;;32.04;23.12;100988.45;107786;1270;109145;-83
2022/04/28 09:21:26;;;;;;;7.20;4.50;;;;;;;32.31;22.55;100991.67;107730;1268;138128;-82
2022/04/28 09:23:59;;;;;;;6.90;4.10;;;;;;;32.45;22.41;100994.43;107273;1270;95119;-81
2022/04/28 09:26:34;;;;;;;9.10;4.10;;;;;;;32.45;21.62;100989.98;106914;1268;111151;-82
2022/04/28 09:29:10;;;;;;;8.40;4.30;;;;;;;32.46;21.84;100991.09;107704;1270;139290;-82
2022/04/28 09:31:44;;;;;;;7.80;4.10;;;;;;;32.87;21.63;100991.80;107810;1270;109091;-82
2022/04/28 09:35:09;;;;;;;9.70;4.30;;;;;;;33.23;21.07;100991.40;107658;1269;137766;-83
2022/04/28 09:37:54;;;;;;;9.80;4.30;;;;;;;33.35;20.14;100986.41;107865;1270;94697;-81
2022/04/28 09:43:20;;;;;;;6.00;4.60;;;;;;;32.89;20.05;100990.10;107880;1270;109395;-80
2022/04/28 09:45:52;;;;;;;4.80;4.30;;;;;;;32.39;19.73;100991.81;107744;1269;137763;-85
2022/04/28 09:48:28;;;;;;;7.80;4.60;;;;;;;32.40;19.61;100989.35;107845;1269;94699;-80
2022/04/28 09:51:09;;;;;;;10.00;4.10;;;;;;;32.41;19.80;100990.50;107866;1270;94844;-85
2022/04/28 09:54:14;;;;;;;8.90;4.10;;;;;;;31.81;19.74;100991.44;107634;1270;110543;-85
2022/04/28 09:56:57;;;;;;;8.00;4.50;;;;;;;31.74;20.04;100985.27;107827;1269;108843;-81
2022/04/28 09:59:30;;;;;;;6.70;4.00;;;;;;;31.71;19.92;100988.67;107682;1270;138941;-80
2022/04/28 10:02:04;;;;;;;5.20;3.90;;;;;;;31.81;19.76;100993.13;107839;1269;94834;-81
2022/04/28 10:04:36;;;;;;;9.70;4.10;;;;;;;31.92;19.79;100995.55;107733;1268;138049;-81
2022/04/28 10:07:38;;;;;;;6.60;4.20;;;;;;;31.93;19.49;100989.58;107859;1268;109886;-80
2022/04/28 10:10:12;;;;;;;7.20;4.00;;;;;;;31.95;19.43;100985.66;107744;1269;138923;-80
2022/04/28 10:12:44;;;;;;;5.60;4.10;;;;;;;32.09;19.59;100984.60;107254;1270;109028;-80
2022/04/28 10:15:39;;;;;;;;;;;;;;;31.80;19.04;100981.52;107701;1269;138715;-79
2022/04/28 10:18:16;;;;;;;6.60;4.40;;;;;;;31.39;19.07;100974.54;107898;1268;94766;-87
2022/04/28 10:20:51;;;;;;;7.90;3.60;;;;;;;30.93;19.30;100979.84;107766;1270;110025;-79
2022/04/28 10:32:57;;;;;;;9.00;4.90;;;;;;;30.51;19.22;100978.58;107232;1268;95157;-78
2022/04/28 10:35:41;;;;;;;8.10;4.30;;;;;;;30.18;19.74;100980.89;107794;1269;137699;-79
2022/04/28 10:38:15;;;;;;;7.50;4.20;;;;;;;29.59;19.73;100979.70;107876;1270;107856;-81
2022/04/28 10:40:55;;;;;;;10.60;4.70;;;;;;;28.76;19.70;100980.84;107546;1270;138295;-79
2022/04/28 10:43:29;;;;;;;10.20;4.30;;;;;;;27.63;20.07;100976.27;107345;1267;96504;-77
2022/04/28 10:46:23;;;;;;;18.40;10.70;;;;;;;26.40;20.89;100984.66;107552;1269;138330;-71
2022/04/28 10:49:00;;;;;;;18.80;10.40;;;;;;;25.38;21.80;100986.52;107883;1268;111068;-73
2022/04/28 10:51:34;;;;;;;11.50;8.00;;;;;;;24.89;22.78;100986.38;107270;1270;139155;-74
2022/04/28 10:54:11;;;;;;;7.60;6.30;;;;;;;24.73;23.36;100987.98;107900;1268;107258;-74
2022/04/28 10:57:02;;;;;;;16.20;9.70;;;;;;;24.91;23.65;100986.55;107827;1269;94704;-76
2022/04/28 10:59:39;;;;;;;7.90;5.60;;;;;;;25.19;23.74;100984.50;106758;1270;137923;-74
2022/04/28 11:02:46;;;;;;;10.10;5.20;;;;;;;25.36;23.57;100982.58;106273;1270;110668;-76
2022/04/28 11:05:54;;;;;;;21.60;10.30;;;;;;;25.17;23.10;100981.30;106284;1271;209429;-74
2022/04/28 11:08:36;;;;;;;13.60;7.80;;;;;;;24.52;23.57;100985.95;106380;1276;109175;-74
2022/04/28 11:11:12;;;;;;;19.60;12.20;;;;;;;24.14;24.22;100990.63;105660;1276;136840;-74
2022/04/28 11:13:50;;;;;;;20.50;13.60;;;;;;;23.88;24.51;100991.46;106159;1274;96576;-74
2022/04/28 11:16:23;;;;;;;16.30;11.10;;;;;;;23.69;24.82;100986.11;106371;1274;139488;-74
2022/04/28 11:18:56;;;;;;;16.50;10.00;;;;;;;23.78;25.17;100989.71;106043;1276;109176;-75
2022/04/28 11:21:28;;;;;;;11.60;7.70;;;;;;;23.92;25.01;100986.47;105991;1276;109159;-75
2022/04/28 11:24:01;;;;;;;13.50;7.90;;;;;;;23.89;25.00;100988.52;107338;1276;138165;-75
2022/04/28 11:26:38;;;;;;;16.00;11.20;;;;;;;23.93;25.02;100985.35;107347;1276;94903;-73
2022/04/28 11:29:26;;;;;;;7.40;5.70;;;;;;;24.09;25.23;100986.98;107197;1276;138039;-74
2022/04/28 11:31:59;;;;;;;12.20;7.00;;;;;;;24.09;24.84;100988.55;107382;1276;109221;-74
2022/04/28 11:34:32;;;;;;;11.20;5.20;;;;;;;24.07;24.98;100979.63;106028;1274;138414;-75
2022/04/28 11:37:17;;;;;;;7.60;6.10;;;;;;;23.95;24.70;100985.52;106058;1276;96524;-75
2022/04/28 11:39:51;;;;;;;11.00;6.80;;;;;;;23.42;24.46;100986.72;107485;1270;137555;-75
2022/04/28 11:42:44;;;;;;;12.00;7.20;;;;;;;22.86;25.01;100984.39;106384;1270;110133;-74
2022/04/28 11:45:17;;;;;;;13.30;7.90;;;;;;;22.55;25.71;100988.04;106509;1270;108882;-76
2022/04/28 11:47:51;;;;;;;25.50;17.80;;;;;;;22.24;26.11;100990.88;106137;1270;138036;-74
2022/04/28 11:50:26;;;;;;;24.90;18.70;;;;;;;21.96;26.18;100988.16;106048;1270;97289;-74
2022/04/28 11:53:03;;;;;;;16.10;11.60;;;;;;;21.73;26.43;100988.14;107232;1270;137593;-70
2022/04/28 11:55:38;;;;;;;14.70;10.60;;;;;;;21.62;26.63;100988.50;106568;1270;110199;-74
2022/04/28 11:58:15;;;;;;;26.40;16.50;;;;;;;21.62;26.79;100989.02;106207;1270;138360;-71
2022/04/28 12:00:49;;;;;;;16.20;12.40;;;;;;;21.72;26.99;100986.46;107301;1270;106766;-77
2022/04/28 12:03:30;;;;;;;18.60;12.20;;;;;;;21.86;26.91;100986.40;107150;1270;96483;-77
2022/04/28 12:06:05;;;;;;;15.40;8.50;;;;;;;22.02;27.24;100984.08;107758;1270;137842;-77
2022/04/28 12:08:37;;;;;;;12.80;8.00;;;;;;;21.92;26.69;100982.80;106670;1270;111086;-79
2022/04/28 12:19:56;;;;;;;9.30;4.90;;;;;;;21.70;26.96;100980.72;106273;1270;96386;-81
2022/04/28 12:22:32;;;;;;;7.00;4.60;;;;;;;21.84;26.60;100976.96;106491;1270;137896;-81
2022/04/28 12:25:06;;;;;;;6.80;4.30;;;;;;;21.90;26.84;100977.59;106177;1270;107530;-81
2022/04/28 12:27:45;;;;;;;5.50;4.40;;;;;;;21.88;26.55;100976.29;107829;1270;107475;-81
2022/04/28 12:30:20;;;;;;;7.90;4.30;;;;;;;21.98;26.31;100979.16;107725;1270;137350;-81
2022/04/28 12:32:54;;;;;;;7.40;4.40;;;;;;;21.98;26.24;100976.38;107823;1271;94667;-80
2022/04/28 12:35:29;;;;;;;8.40;4.40;;;;;;;22.02;26.13;100975.49;107741;1270;137785;-80
2022/04/28 12:38:06;;;;;;;6.40;4.20;;;;;;;22.05;26.16;100972.89;107810;1270;107925;-80